Time;durP1;ratioP1;P1;durP2;ratioP2;P2;SDS_P1;SDS_P2;PMS_P1;PMS_P2;Temp;Humidity;BMP_temperature;BMP_pressure;BME280_temperature;BME280_humidity;BME280_pressure;Samples;Min_cycle;Max_cycle;Signal;HPM_P1;HPM_P2
2022/05/02 00:00:55;;;;;;;13.55;8.25;;;16.30;57.60;;;;;;5033395;28;20025;-74
2022/05/02 00:03:21;;;;;;;13.00;8.00;;;16.30;57.80;;;;;;5033238;28;20153;-73
2022/05/02 00:05:47;;;;;;;13.10;8.18;;;16.30;58.00;;;;;;5033492;28;20025;-74
2022/05/02 00:08:13;;;;;;;10.38;7.25;;;16.20;58.30;;;;;;5033409;28;20022;-74
2022/05/02 00:10:39;;;;;;;15.13;8.48;;;16.20;58.90;;;;;;5033854;28;20053;-73
2022/05/02 00:13:09;;;;;;;10.05;7.28;;;16.10;58.80;;;;;;5033705;28;20107;-73
2022/05/02 00:15:36;;;;;;;13.52;7.32;;;16.10;59.00;;;;;;5033689;28;20084;-74
2022/05/02 00:18:03;;;;;;;11.63;7.18;;;16.10;59.20;;;;;;5033670;28;20121;-73
2022/05/02 00:20:31;;;;;;;11.90;7.45;;;16.20;59.10;;;;;;5033442;28;20022;-74
2022/05/02 00:22:58;;;;;;;12.52;7.47;;;16.10;59.20;;;;;;5033486;28;20029;-73
2022/05/02 00:25:25;;;;;;;12.13;6.70;;;16.20;59.10;;;;;;5035879;28;20079;-74
2022/05/02 00:27:51;;;;;;;13.73;7.13;;;16.20;59.20;;;;;;5033354;28;20032;-73
2022/05/02 00:30:17;;;;;;;14.35;7.22;;;16.10;59.20;;;;;;5033174;28;20025;-74
2022/05/02 00:32:44;;;;;;;12.68;6.88;;;16.10;59.40;;;;;;5033275;28;20030;-73
2022/05/02 00:35:11;;;;;;;10.35;7.57;;;16.10;59.50;;;;;;5032829;28;20479;-74
2022/05/02 00:37:41;;;;;;;12.30;6.25;;;16.10;59.80;;;;;;5032046;28;20052;-74
2022/05/02 00:40:09;;;;;;;11.93;7.18;;;16.10;59.90;;;;;;5033140;28;20108;-74
2022/05/02 00:42:34;;;;;;;9.82;6.05;;;16.00;60.00;;;;;;5033085;28;20033;-74
2022/05/02 00:45:00;;;;;;;10.65;6.53;;;16.00;59.80;;;;;;5032819;28;20379;-74
2022/05/02 00:47:27;;;;;;;11.52;6.10;;;16.00;59.90;;;;;;5033051;28;20071;-74
2022/05/02 00:49:53;;;;;;;13.30;6.10;;;16.00;59.80;;;;;;5032878;28;20051;-74
2022/05/02 00:52:19;;;;;;;11.32;6.50;;;15.90;59.80;;;;;;5033258;28;20040;-75
2022/05/02 00:54:46;;;;;;;10.60;5.65;;;15.90;60.10;;;;;;5032885;28;20399;-73
2022/05/02 00:57:13;;;;;;;9.15;5.50;;;15.90;60.40;;;;;;5032799;28;20022;-74
2022/05/02 00:59:40;;;;;;;13.15;6.28;;;15.80;60.40;;;;;;5033186;28;20025;-74
2022/05/02 01:02:07;;;;;;;8.60;6.03;;;15.90;60.60;;;;;;5036676;28;20497;-73
2022/05/02 01:04:34;;;;;;;10.15;5.68;;;15.90;60.60;;;;;;5036849;28;20045;-74
2022/05/02 01:07:10;;;;;;;9.05;5.20;;;15.80;60.30;;;;;;5036750;28;20490;-73
2022/05/02 01:09:44;;;;;;;8.52;5.63;;;15.80;60.40;;;;;;5036979;28;20040;-73
2022/05/02 01:12:14;;;;;;;10.20;5.95;;;15.70;60.20;;;;;;5036687;28;20056;-75
2022/05/02 01:14:42;;;;;;;10.73;6.30;;;15.70;60.70;;;;;;5036333;28;20092;-74
2022/05/02 01:17:08;;;;;;;9.20;5.85;;;15.70;60.60;;;;;;5036719;28;20425;-75
2022/05/02 01:19:34;;;;;;;11.30;6.15;;;15.60;61.00;;;;;;5036807;28;20026;-73
2022/05/02 01:22:00;;;;;;;8.13;5.60;;;15.60;60.80;;;;;;5051858;28;20057;-73
2022/05/02 01:24:40;;;;;;;9.13;6.00;;;15.60;60.90;;;;;;5036329;28;20164;-74
2022/05/02 01:27:07;;;;;;;10.13;6.00;;;15.50;61.10;;;;;;5036502;28;20071;-74
2022/05/02 01:29:35;;;;;;;10.77;6.88;;;15.50;61.40;;;;;;5036186;28;20034;-74
2022/05/02 01:32:06;;;;;;;11.70;6.57;;;15.40;62.20;;;;;;5036772;28;20028;-72
2022/05/02 01:34:36;;;;;;;12.68;7.25;;;15.30;62.00;;;;;;5035981;28;20030;-74
2022/05/02 01:37:03;;;;;;;9.70;6.57;;;15.20;62.10;;;;;;5036140;28;20048;-74
2022/05/02 01:39:29;;;;;;;9.43;7.10;;;15.10;62.50;;;;;;5035970;28;20100;-73
2022/05/02 01:41:58;;;;;;;10.50;6.80;;;15.10;62.90;;;;;;5035670;28;20033;-74
2022/05/02 01:44:26;;;;;;;11.02;7.00;;;15.10;63.20;;;;;;5036046;28;20121;-74
2022/05/02 01:46:52;;;;;;;11.75;7.47;;;15.00;63.70;;;;;;5036013;28;20030;-76
2022/05/02 01:49:18;;;;;;;10.70;7.00;;;15.00;63.90;;;;;;5035881;28;20044;-73
2022/05/02 01:51:43;;;;;;;10.55;7.25;;;14.90;64.40;;;;;;5035908;28;20018;-76
2022/05/02 01:54:09;;;;;;;12.68;7.20;;;14.90;65.10;;;;;;5035824;28;20513;-75
2022/05/02 01:56:35;;;;;;;14.65;8.10;;;14.90;64.90;;;;;;5036063;28;20037;-76
2022/05/02 01:59:02;;;;;;;15.30;7.68;;;14.90;64.90;;;;;;5035742;28;20032;-78
2022/05/02 02:01:28;;;;;;;10.80;7.25;;;14.90;65.10;;;;;;5035646;28;20032;-76
2022/05/02 02:03:54;;;;;;;10.70;7.10;;;14.90;65.50;;;;;;5050912;28;20112;-76
2022/05/02 02:06:21;;;;;;;10.43;7.05;;;14.80;65.40;;;;;;5035678;28;20497;-78
2022/05/02 02:08:48;;;;;;;10.25;6.82;;;14.80;65.80;;;;;;5051136;28;20033;-79
2022/05/02 02:11:14;;;;;;;10.63;6.70;;;14.80;65.90;;;;;;5034841;28;20014;-76
2022/05/02 02:13:40;;;;;;;11.13;7.43;;;14.80;66.50;;;;;;5035519;28;20088;-75
2022/05/02 02:16:09;;;;;;;8.93;6.30;;;14.80;66.70;;;;;;5034158;28;20038;-78
2022/05/02 02:18:37;;;;;;;13.15;6.80;;;14.80;65.90;;;;;;5035611;28;20431;-76
2022/05/02 02:21:03;;;;;;;12.30;7.00;;;14.90;65.60;;;;;;5034179;28;20033;-74
2022/05/02 02:23:29;;;;;;;11.35;6.90;;;14.90;65.70;;;;;;5035352;28;20034;-76
2022/05/02 02:25:55;;;;;;;11.35;6.88;;;14.90;66.00;;;;;;5035454;28;20035;-74
2022/05/02 02:28:21;;;;;;;11.45;7.18;;;14.90;66.30;;;;;;5035242;28;20036;-73
2022/05/02 02:30:47;;;;;;;10.05;7.05;;;14.90;65.70;;;;;;5035250;28;20021;-73
2022/05/02 02:33:13;;;;;;;9.50;6.82;;;15.00;66.10;;;;;;5035049;28;20060;-75
2022/05/02 02:35:39;;;;;;;15.23;6.90;;;15.00;66.00;;;;;;5034649;28;20413;-73
2022/05/02 02:38:05;;;;;;;11.13;6.55;;;15.00;66.30;;;;;;5034981;28;20174;-73
2022/05/02 02:40:31;;;;;;;11.20;7.22;;;15.00;66.30;;;;;;5035582;28;20026;-74
2022/05/02 02:42:57;;;;;;;10.90;6.47;;;15.00;65.90;;;;;;5035079;28;20065;-74
2022/05/02 02:45:22;;;;;;;10.32;6.30;;;15.00;66.30;;;;;;5034575;28;20103;-74
2022/05/02 02:47:48;;;;;;;10.02;6.65;;;14.90;66.40;;;;;;5034817;28;20021;-74
2022/05/02 02:50:14;;;;;;;10.13;6.55;;;14.80;66.80;;;;;;5033702;28;20132;-72
2022/05/02 02:52:40;;;;;;;10.43;6.30;;;14.70;66.90;;;;;;5033705;28;20100;-73
2022/05/02 02:55:06;;;;;;;10.93;6.82;;;14.70;67.10;;;;;;5034680;28;20040;-74
2022/05/02 02:57:33;;;;;;;13.70;6.40;;;14.60;67.30;;;;;;5034923;28;20026;-73
2022/05/02 03:00:01;;;;;;;12.68;6.60;;;14.50;67.70;;;;;;5034489;28;20029;-74
2022/05/02 03:02:27;;;;;;;11.65;6.30;;;14.50;68.40;;;;;;5034826;28;20366;-74
2022/05/02 03:07:37;;;;;;;12.30;7.07;;;14.50;68.00;;;;;;5034007;28;20107;-74
2022/05/02 03:10:04;;;;;;;10.43;6.40;;;14.40;68.10;;;;;;5037528;28;20463;-74
2022/05/02 03:12:29;;;;;;;13.55;6.80;;;14.40;68.60;;;;;;5037399;28;20052;-74
2022/05/02 03:14:55;;;;;;;12.50;7.05;;;14.50;68.80;;;;;;5034194;28;20026;-75
2022/05/02 03:17:21;;;;;;;12.77;7.30;;;14.50;68.60;;;;;;5034090;28;20463;-74
2022/05/02 03:19:47;;;;;;;12.30;7.30;;;14.50;68.60;;;;;;5034022;28;20029;-76
2022/05/02 03:22:13;;;;;;;11.35;6.68;;;14.40;68.40;;;;;;5034283;28;20032;-76
2022/05/02 03:24:39;;;;;;;11.25;6.97;;;14.40;68.60;;;;;;5051879;28;20025;-77
2022/05/02 03:27:05;;;;;;;11.52;6.15;;;14.40;69.00;;;;;;5041250;28;20022;-74
2022/05/02 03:29:31;;;;;;;9.35;6.22;;;14.30;69.20;;;;;;5034565;28;20040;-77
2022/05/02 03:31:57;;;;;;;11.38;6.35;;;14.30;69.40;;;;;;5034527;28;20018;-74
2022/05/02 03:34:23;;;;;;;12.05;5.90;;;14.30;69.40;;;;;;5034333;28;20025;-78
2022/05/02 03:36:48;;;;;;;8.35;6.05;;;14.30;69.20;;;;;;5033636;28;20053;-79
2022/05/02 03:39:14;;;;;;;10.60;5.95;;;14.20;69.40;;;;;;5033938;28;20026;-78
2022/05/02 03:41:40;;;;;;;10.38;5.78;;;14.20;69.70;;;;;;5033724;28;20021;-79
2022/05/02 03:44:06;;;;;;;8.52;6.13;;;14.10;69.90;;;;;;5033561;28;20025;-74
2022/05/02 03:46:31;;;;;;;9.70;5.82;;;14.10;70.30;;;;;;5033822;28;20104;-76
2022/05/02 03:48:59;;;;;;;10.90;6.07;;;14.10;70.20;;;;;;5033521;28;20032;-78
2022/05/02 03:51:25;;;;;;;12.32;6.40;;;14.10;70.20;;;;;;5033686;28;20029;-74
2022/05/02 03:53:50;;;;;;;9.13;5.95;;;14.10;70.10;;;;;;5033388;28;20387;-74
2022/05/02 03:56:16;;;;;;;11.18;6.18;;;14.20;70.00;;;;;;5048739;28;20390;-76
2022/05/02 03:58:42;;;;;;;11.70;5.97;;;14.20;70.00;;;;;;5032229;28;20036;-73
2022/05/02 04:01:08;;;;;;;11.32;6.03;;;14.10;69.70;;;;;;5033251;28;20021;-73
2022/05/02 04:03:33;;;;;;;11.77;6.13;;;14.10;70.30;;;;;;5033302;28;20025;-73
2022/05/02 04:05:59;;;;;;;9.02;6.00;;;14.10;69.90;;;;;;5033159;28;20394;-73
2022/05/02 04:08:25;;;;;;;10.80;6.03;;;14.10;69.80;;;;;;5033179;28;20040;-74
2022/05/02 04:10:50;;;;;;;13.90;6.32;;;14.10;69.70;;;;;;5033154;28;20022;-74
2022/05/02 04:13:16;;;;;;;9.77;6.35;;;14.10;70.10;;;;;;5033269;28;20087;-75
2022/05/02 04:15:42;;;;;;;11.25;5.88;;;14.00;70.50;;;;;;5032873;28;20423;-74
2022/05/02 04:18:08;;;;;;;10.75;6.90;;;14.00;70.60;;;;;;5033089;28;20024;-73
2022/05/02 04:20:34;;;;;;;14.38;6.60;;;14.00;70.20;;;;;;5033014;28;20029;-74
2022/05/02 04:23:00;;;;;;;10.93;6.47;;;14.10;70.10;;;;;;5033330;28;20029;-75
2022/05/02 04:25:25;;;;;;;9.40;5.47;;;14.00;70.70;;;;;;5031629;28;20025;-74
2022/05/02 04:27:51;;;;;;;9.75;5.70;;;14.10;70.40;;;;;;5032002;28;20041;-74
2022/05/02 04:30:17;;;;;;;13.30;6.00;;;14.10;70.00;;;;;;5033143;28;20101;-74
2022/05/02 04:32:42;;;;;;;10.07;6.03;;;14.00;70.20;;;;;;5032903;28;20524;-74
2022/05/02 04:35:10;;;;;;;9.48;5.97;;;14.00;70.50;;;;;;5032753;28;20045;-74
2022/05/02 04:37:37;;;;;;;13.43;5.93;;;14.10;70.40;;;;;;5052724;28;20044;-79
2022/05/02 04:40:03;;;;;;;11.27;6.38;;;14.10;70.20;;;;;;5037958;28;20053;-77
2022/05/02 04:42:29;;;;;;;14.25;5.93;;;14.10;69.90;;;;;;5037207;28;20534;-75
2022/05/02 04:44:54;;;;;;;14.05;6.13;;;14.20;69.60;;;;;;5036008;28;20114;-74
2022/05/02 04:47:20;;;;;;;10.45;6.25;;;14.30;69.40;;;;;;5037371;28;20029;-75
2022/05/02 04:49:46;;;;;;;10.73;5.70;;;14.30;69.30;;;;;;5037167;28;20430;-76
2022/05/02 04:52:11;;;;;;;10.23;5.60;;;14.40;69.40;;;;;;5037116;28;20459;-75
2022/05/02 04:54:37;;;;;;;8.60;5.10;;;14.40;69.10;;;;;;5037169;28;20026;-76
2022/05/02 04:57:05;;;;;;;11.63;5.85;;;14.40;69.20;;;;;;5052178;28;20375;-80
2022/05/02 04:59:30;;;;;;;10.60;5.68;;;14.40;69.00;;;;;;5053028;28;20030;-76
2022/05/02 05:01:58;;;;;;;9.35;5.47;;;14.40;68.70;;;;;;5036995;28;20049;-74
2022/05/02 05:04:24;;;;;;;9.23;5.70;;;14.40;68.50;;;;;;5036912;28;20025;-76
2022/05/02 05:06:50;;;;;;;11.68;5.88;;;14.40;68.90;;;;;;5037217;28;20025;-75
2022/05/02 05:09:15;;;;;;;8.60;5.53;;;14.50;68.50;;;;;;5037202;28;20037;-73
2022/05/02 05:11:50;;;;;;;9.77;5.55;;;14.50;68.50;;;;;;5036700;28;20419;-74
2022/05/02 05:17:50;;;;;;;9.38;5.53;;;14.50;69.00;;;;;;5036411;28;20083;-77
2022/05/02 05:20:49;;;;;;;9.80;5.78;;;14.50;69.30;;;;;;5036232;28;20026;-77
2022/05/02 05:23:48;;;;;;;9.38;5.20;;;14.60;69.30;;;;;;5036947;28;20037;-80
2022/05/02 05:26:53;;;;;;;11.55;5.30;;;14.70;68.80;;;;;;5036944;28;20091;-79
2022/05/02 05:29:57;;;;;;;15.98;5.85;;;14.90;68.60;;;;;;5037026;28;20025;-75
2022/05/02 05:32:44;;;;;;;13.52;5.90;;;15.20;67.20;;;;;;5035826;28;20044;-79
2022/05/02 05:35:12;;;;;;;8.90;5.53;;;15.30;66.70;;;;;;5035558;28;20065;-77
2022/05/02 05:37:57;;;;;;;9.90;5.55;;;15.50;65.80;;;;;;5035802;28;20037;-73
2022/05/02 05:40:29;;;;;;;9.20;5.32;;;15.60;65.80;;;;;;5035867;28;20029;-74
2022/05/02 05:43:08;;;;;;;8.50;5.18;;;15.80;65.00;;;;;;5035669;28;20049;-73
2022/05/02 05:46:09;;;;;;;9.68;4.90;;;15.90;64.50;;;;;;5035460;28;20055;-78
2022/05/02 05:48:56;;;;;;;12.00;5.80;;;16.00;64.30;;;;;;5034523;28;20041;-76
2022/05/02 05:51:36;;;;;;;12.77;5.38;;;16.30;63.80;;;;;;5050889;28;20387;-76
2022/05/02 05:54:29;;;;;;;15.63;5.55;;;16.40;62.60;;;;;;5034285;28;20024;-79
2022/05/02 05:57:37;;;;;;;12.45;6.45;;;16.60;62.20;;;;;;5035368;28;20124;-75
2022/05/02 06:00:05;;;;;;;11.10;5.40;;;16.80;62.00;;;;;;5037346;28;20323;-77
2022/05/02 06:03:08;;;;;;;9.07;5.13;;;17.00;60.70;;;;;;5050396;28;20056;-77
2022/05/02 06:05:46;;;;;;;11.90;5.53;;;17.00;60.70;;;;;;5035658;28;20159;-74
2022/05/02 06:08:16;;;;;;;10.32;5.28;;;17.20;60.30;;;;;;5035171;28;20060;-77
2022/05/02 06:10:43;;;;;;;12.40;5.57;;;17.30;60.40;;;;;;5035023;28;20083;-76
2022/05/02 06:13:09;;;;;;;12.38;5.47;;;17.30;59.80;;;;;;5035011;28;20037;-78
2022/05/02 06:18:28;;;;;;;13.48;5.68;;;17.60;60.60;;;;;;5034960;28;20048;-74
2022/05/02 06:20:57;;;;;;;14.05;5.68;;;17.90;60.20;;;;;;5034643;28;20036;-75
2022/05/02 06:23:26;;;;;;;13.27;5.50;;;18.00;58.30;;;;;;5034766;28;20022;-76
2022/05/02 06:25:55;;;;;;;11.27;5.38;;;18.20;58.60;;;;;;5034648;28;20044;-77
2022/05/02 06:28:24;;;;;;;8.98;5.18;;;18.30;58.60;;;;;;5035053;28;20029;-77
2022/05/02 06:30:53;;;;;;;10.00;5.60;;;18.30;58.50;;;;;;5034848;28;20108;-78
2022/05/02 06:33:22;;;;;;;10.90;5.55;;;18.30;58.10;;;;;;5035176;28;20021;-76
2022/05/02 06:36:06;;;;;;;11.38;5.00;;;18.20;58.10;;;;;;5034371;28;20080;-74
2022/05/02 06:39:02;;;;;;;16.67;5.35;;;18.10;57.80;;;;;;5034574;28;20036;-76
2022/05/02 06:42:06;;;;;;;13.55;5.15;;;18.10;56.90;;;;;;5034322;28;20030;-75
2022/05/02 06:44:50;;;;;;;12.88;5.07;;;18.10;56.40;;;;;;5030503;28;20486;-75
2022/05/02 06:47:34;;;;;;;16.45;5.65;;;18.30;57.40;;;;;;5034391;28;20039;-76
2022/05/02 06:50:05;;;;;;;17.63;5.18;;;18.40;57.30;;;;;;5049727;28;20040;-76
2022/05/02 06:53:01;;;;;;;15.13;5.75;;;18.60;57.30;;;;;;5034010;28;20100;-75
2022/05/02 06:55:52;;;;;;;12.05;5.47;;;18.80;55.90;;;;;;5034176;28;20344;-74
2022/05/02 06:58:37;;;;;;;10.23;5.32;;;19.10;55.50;;;;;;5049201;28;20119;-76
2022/05/02 07:01:23;;;;;;;16.70;6.13;;;19.30;54.60;;;;;;5034523;28;20017;-78
2022/05/02 07:04:24;;;;;;;12.68;6.57;;;19.50;54.50;;;;;;5034309;28;20022;-79
2022/05/02 07:07:11;;;;;;;18.23;5.75;;;19.70;53.80;;;;;;5034146;28;20033;-75
2022/05/02 07:09:51;;;;;;;13.52;5.13;;;19.80;53.50;;;;;;5034385;28;20026;-76
2022/05/02 07:12:24;;;;;;;10.82;5.30;;;19.80;54.40;;;;;;5033975;28;20026;-76
2022/05/02 07:15:05;;;;;;;9.27;5.20;;;19.90;54.40;;;;;;5033975;28;20055;-75
2022/05/02 07:17:52;;;;;;;13.63;5.90;;;19.80;52.70;;;;;;5033994;28;20044;-75
2022/05/02 07:20:41;;;;;;;11.48;5.35;;;19.70;52.80;;;;;;5033879;28;20538;-78
2022/05/02 07:23:30;;;;;;;11.38;4.85;;;20.00;53.90;;;;;;5030814;28;20091;-75
2022/05/02 07:26:22;;;;;;;11.32;4.78;;;20.10;53.50;;;;;;5030537;28;20433;-77
2022/05/02 07:28:51;;;;;;;18.58;5.20;;;20.00;52.40;;;;;;5047243;28;20037;-76
2022/05/02 07:31:23;;;;;;;9.80;5.35;;;20.10;53.40;;;;;;5033530;28;20056;-75
2022/05/02 07:33:52;;;;;;;13.90;5.28;;;20.00;53.20;;;;;;5033622;28;20501;-75
2022/05/02 07:36:23;;;;;;;16.65;5.07;;;20.00;52.80;;;;;;5033094;28;20049;-76
2022/05/02 07:39:01;;;;;;;16.88;5.88;;;20.00;53.20;;;;;;5033099;28;20022;-76
2022/05/02 07:41:27;;;;;;;9.70;5.07;;;20.10;52.00;;;;;;5033328;28;20032;-76
2022/05/02 07:44:05;;;;;;;9.60;5.20;;;20.10;52.90;;;;;;5033033;28;20502;-79
2022/05/02 07:46:36;;;;;;;11.88;5.35;;;20.20;51.50;;;;;;5048650;28;20036;-75
2022/05/02 07:49:03;;;;;;;10.80;4.55;;;20.20;52.40;;;;;;5033214;28;20025;-77
2022/05/02 07:51:31;;;;;;;9.75;4.35;;;20.20;52.40;;;;;;5032961;28;20371;-75
2022/05/02 07:53:59;;;;;;;9.07;4.68;;;20.10;52.40;;;;;;5048271;28;20076;-75
2022/05/02 07:56:30;;;;;;;11.82;5.35;;;20.10;52.50;;;;;;5032929;28;20438;-74
2022/05/02 07:58:58;;;;;;;10.90;4.97;;;20.00;51.20;;;;;;5031725;28;20029;-78
2022/05/02 08:01:25;;;;;;;10.38;4.63;;;20.00;52.40;;;;;;5033166;28;20079;-75
2022/05/02 08:03:52;;;;;;;15.15;5.25;;;20.00;52.30;;;;;;5032691;28;20025;-76
2022/05/02 08:06:50;;;;;;;12.40;5.57;;;20.10;52.50;;;;;;5033092;28;20374;-76
2022/05/02 08:09:34;;;;;;;20.75;4.97;;;20.20;51.20;;;;;;5032334;28;20096;-77
2022/05/02 08:12:24;;;;;;;10.05;5.20;;;20.20;51.20;;;;;;5032956;28;20446;-75
2022/05/02 08:14:53;;;;;;;13.02;5.57;;;20.20;51.30;;;;;;5047730;28;20022;-76
2022/05/02 08:17:22;;;;;;;11.18;5.15;;;20.20;52.20;;;;;;5032674;28;20399;-75
2022/05/02 08:20:10;;;;;;;11.75;5.15;;;20.10;52.10;;;;;;5032655;28;20052;-79
2022/05/02 08:29:14;;;;;;;11.40;5.55;;;20.10;51.50;;;;;;5032250;28;20060;-75
2022/05/02 08:32:19;;;;;;;9.50;5.10;;;20.20;52.60;;;;;;5032393;28;20026;-74
2022/05/02 08:34:45;;;;;;;11.85;6.00;;;20.20;52.50;;;;;;5029406;28;20042;-76
2022/05/02 08:37:37;;;;;;;9.13;5.53;;;20.20;52.60;;;;;;5048055;28;20312;-76
2022/05/02 08:40:24;;;;;;;8.98;5.32;;;20.20;51.20;;;;;;5048112;28;20049;-78
2022/05/02 08:43:08;;;;;;;11.90;5.13;;;20.10;51.10;;;;;;5047699;28;20057;-75
2022/05/02 08:46:07;;;;;;;9.82;5.20;;;20.10;52.30;;;;;;5032084;28;20025;-77
2022/05/02 08:49:32;;;;;;;15.25;6.38;;;20.10;51.20;;;;;;5047880;28;20040;-78
2022/05/02 08:52:28;;;;;;;12.32;5.82;;;20.10;52.00;;;;;;5032023;28;20025;-74
2022/05/02 08:55:09;;;;;;;;;;;20.10;51.00;;;;;;5032772;28;20029;-76
2022/05/02 08:58:08;;;;;;;10.35;5.10;;;20.20;51.20;;;;;;5030852;28;19941;-75
2022/05/02 09:00:52;;;;;;;9.30;5.10;;;20.30;51.20;;;;;;5032183;28;20077;-75
2022/05/02 09:03:46;;;;;;;14.05;5.32;;;20.30;51.50;;;;;;5032130;28;20475;-74
2022/05/02 09:06:49;;;;;;;13.07;6.57;;;20.40;50.70;;;;;;5032323;28;20025;-76
2022/05/02 09:09:37;;;;;;;14.98;5.35;;;20.50;50.40;;;;;;5032219;28;20032;-74
2022/05/02 09:12:21;;;;;;;12.85;5.65;;;20.50;50.30;;;;;;5047334;28;20452;-74
2022/05/02 09:14:52;;;;;;;8.02;4.95;;;20.50;49.80;;;;;;5032082;28;20026;-78
2022/05/02 09:18:08;;;;;;;10.45;4.40;;;20.50;49.40;;;;;;5031902;28;20037;-75
2022/05/02 09:20:56;;;;;;;10.25;3.88;;;20.60;49.50;;;;;;5032673;28;20049;-73
2022/05/02 09:23:32;;;;;;;10.57;4.50;;;20.60;48.50;;;;;;5050919;28;20386;-78
2022/05/02 09:26:20;;;;;;;9.98;3.58;;;20.60;48.60;;;;;;5035619;28;20124;-75
2022/05/02 09:29:12;;;;;;;8.18;4.63;;;20.60;48.10;;;;;;5032619;28;20122;-76
2022/05/02 09:31:58;;;;;;;10.02;4.22;;;20.70;48.10;;;;;;5035778;28;20022;-75
2022/05/02 09:34:47;;;;;;;11.88;3.65;;;20.70;47.90;;;;;;5035790;28;20498;-77
2022/05/02 09:37:30;;;;;;;8.25;4.03;;;20.70;46.70;;;;;;5035829;28;20395;-74
2022/05/02 09:40:15;;;;;;;7.80;3.42;;;20.50;46.50;;;;;;5034181;28;20030;-75
2022/05/02 09:43:19;;;;;;;10.95;4.00;;;20.50;46.90;;;;;;5035298;28;20382;-75
2022/05/02 09:49:37;;;;;;;14.90;3.47;;;20.70;46.80;;;;;;5035577;28;20060;-76
2022/05/02 09:52:05;;;;;;;12.05;3.80;;;20.70;46.40;;;;;;5050535;28;20021;-74
2022/05/02 09:57:59;;;;;;;9.35;3.90;;;21.00;46.00;;;;;;5034408;28;20068;-76
2022/05/02 10:03:34;;;;;;;11.20;4.82;;;21.00;45.20;;;;;;5035776;28;20160;-77
2022/05/02 10:06:04;;;;;;;8.50;3.83;;;21.10;45.40;;;;;;5035514;28;20025;-76
2022/05/02 10:08:57;;;;;;;10.27;4.30;;;21.10;45.70;;;;;;5050691;28;20017;-75
2022/05/02 10:11:40;;;;;;;9.00;3.85;;;21.20;45.50;;;;;;5035589;28;20025;-76
2022/05/02 10:14:23;;;;;;;8.40;3.72;;;21.30;45.30;;;;;;5034857;28;20077;-76
2022/05/02 10:17:19;;;;;;;9.43;4.40;;;21.30;45.50;;;;;;5035192;28;20038;-76
2022/05/02 10:20:04;;;;;;;9.60;4.60;;;21.40;44.90;;;;;;5034636;28;20040;-76
2022/05/02 10:22:51;;;;;;;7.45;4.30;;;21.50;44.90;;;;;;5034880;28;20037;-76
2022/05/02 10:25:38;;;;;;;8.57;4.68;;;21.50;45.20;;;;;;5050154;28;20117;-76
2022/05/02 10:28:23;;;;;;;8.32;4.32;;;21.40;45.00;;;;;;5050392;28;20459;-75
2022/05/02 10:30:50;;;;;;;11.88;4.55;;;21.40;44.60;;;;;;5035231;28;20025;-79
2022/05/02 10:33:29;;;;;;;7.95;4.28;;;21.40;44.80;;;;;;5049433;28;20120;-77
2022/05/02 10:35:58;;;;;;;6.30;3.47;;;21.50;44.50;;;;;;5034507;28;20081;-75
2022/05/02 10:38:32;;;;;;;7.78;3.85;;;21.60;44.00;;;;;;5034857;28;20375;-77
2022/05/02 10:41:11;;;;;;;;;;;21.60;43.40;;;;;;5033870;28;20477;-76
2022/05/02 10:43:44;;;;;;;7.97;2.90;;;21.70;44.40;;;;;;5032859;28;20301;-76
2022/05/02 10:46:12;;;;;;;6.03;3.13;;;21.80;43.10;;;;;;5034499;28;20486;-77
2022/05/02 10:48:46;;;;;;;6.78;3.40;;;21.90;42.90;;;;;;5034324;28;20097;-74
2022/05/02 10:51:16;;;;;;;17.55;3.38;;;22.00;42.70;;;;;;5033161;28;20108;-75
2022/05/02 10:53:55;;;;;;;11.50;3.58;;;22.10;42.20;;;;;;5034460;28;20447;-75
2022/05/02 10:56:40;;;;;;;9.32;3.25;;;22.20;42.30;;;;;;5034422;28;20067;-74
2022/05/02 10:59:09;;;;;;;12.50;3.53;;;22.30;42.40;;;;;;5034106;28;20026;-76
2022/05/02 11:01:50;;;;;;;10.73;3.88;;;22.40;42.40;;;;;;5034225;28;20033;-80
2022/05/02 11:04:47;;;;;;;9.20;3.10;;;22.50;41.90;;;;;;5033745;28;20025;-75
2022/05/02 11:07:54;;;;;;;8.35;3.00;;;22.60;40.70;;;;;;5025038;28;20095;-74
2022/05/02 11:10:24;;;;;;;9.30;3.28;;;22.60;40.40;;;;;;5027813;28;20116;-76
2022/05/02 11:13:07;;;;;;;8.48;3.33;;;22.70;41.00;;;;;;5032771;28;20044;-76
2022/05/02 11:15:47;;;;;;;9.18;3.03;;;22.70;40.20;;;;;;5033780;28;20033;-78
2022/05/02 11:21:29;;;;;;;9.13;3.58;;;22.80;39.60;;;;;;5033844;28;20509;-76
2022/05/02 11:24:14;;;;;;;12.43;3.22;;;22.90;39.50;;;;;;5033834;28;20037;-74
2022/05/02 11:26:54;;;;;;;8.32;3.22;;;22.90;39.60;;;;;;5034406;28;20131;-77
2022/05/02 11:29:55;;;;;;;7.68;3.10;;;22.90;39.70;;;;;;5049157;28;20087;-77
2022/05/02 11:32:40;;;;;;;11.90;4.13;;;23.00;39.70;;;;;;5030315;28;20509;-78
2022/05/02 11:35:28;;;;;;;18.75;4.45;;;23.10;40.40;;;;;;5033301;28;20116;-76
2022/05/02 11:38:09;;;;;;;10.88;3.83;;;23.30;40.20;;;;;;5033928;28;20132;-76
2022/05/02 11:41:08;;;;;;;13.75;8.55;;;23.40;40.20;;;;;;5034064;28;20454;-77
2022/05/02 11:43:37;;;;;;;13.10;4.35;;;23.60;40.40;;;;;;5031453;28;20041;-77
2022/05/02 11:46:20;;;;;;;14.73;4.15;;;23.70;40.30;;;;;;5033410;28;20049;-77
2022/05/02 11:49:20;;;;;;;10.07;3.23;;;23.80;40.40;;;;;;5033686;28;20080;-78
2022/05/02 11:51:51;;;;;;;21.63;4.25;;;24.00;40.40;;;;;;5033410;28;20279;-77
2022/05/02 11:54:36;;;;;;;12.95;3.72;;;24.20;40.40;;;;;;5033180;28;20021;-76
2022/05/02 11:57:27;;;;;;;25.00;4.82;;;24.30;39.80;;;;;;5033877;28;20045;-74
2022/05/02 12:00:16;;;;;;;10.98;3.65;;;24.50;39.30;;;;;;5033554;28;20490;-76
2022/05/02 12:02:52;;;;;;;7.38;3.30;;;24.60;39.10;;;;;;5033370;28;20498;-78
2022/05/02 12:05:37;;;;;;;6.07;2.95;;;24.50;39.30;;;;;;5033177;28;20057;-78
2022/05/02 12:08:06;;;;;;;6.00;2.90;;;24.30;40.60;;;;;;5033114;28;20435;-82
2022/05/02 12:10:35;;;;;;;11.35;3.47;;;24.10;41.20;;;;;;5033322;28;20017;-82
2022/05/02 12:13:03;;;;;;;8.98;3.38;;;24.00;41.80;;;;;;5033113;28;20029;-75
2022/05/02 12:15:29;;;;;;;8.63;3.17;;;23.90;42.30;;;;;;5032581;28;20030;-75
2022/05/02 12:18:03;;;;;;;8.45;2.90;;;23.90;43.30;;;;;;5047980;28;20022;-76
2022/05/02 12:20:53;;;;;;;8.57;3.22;;;24.00;42.80;;;;;;5032571;28;20025;-76
2022/05/02 12:23:21;;;;;;;11.13;3.35;;;24.00;42.80;;;;;;5032999;28;20026;-76
2022/05/02 12:25:56;;;;;;;8.73;3.40;;;24.20;42.90;;;;;;5031355;28;20055;-75
2022/05/02 12:28:51;;;;;;;6.63;2.83;;;24.40;42.60;;;;;;5033088;28;20087;-76
2022/05/02 12:31:27;;;;;;;;;;;24.40;42.60;;;;;;5034116;28;20032;-77
2022/05/02 12:34:09;;;;;;;10.00;2.97;;;24.50;42.60;;;;;;5032978;28;19905;-76
2022/05/02 12:36:56;;;;;;;9.60;3.13;;;24.60;42.00;;;;;;5032697;28;20069;-77
2022/05/02 12:39:36;;;;;;;7.90;3.20;;;24.70;42.40;;;;;;5032833;28;20022;-76
2022/05/02 12:42:17;;;;;;;8.50;2.97;;;24.80;42.00;;;;;;5033081;28;20056;-74
2022/05/02 12:45:20;;;;;;;9.45;2.83;;;24.90;41.80;;;;;;5033027;28;20529;-77
2022/05/02 12:47:50;;;;;;;7.60;2.70;;;24.90;41.30;;;;;;5020734;28;20069;-78
2022/05/02 12:50:22;;;;;;;10.23;2.75;;;24.90;42.00;;;;;;5032814;28;20026;-76
2022/05/02 12:52:56;;;;;;;9.13;2.85;;;24.80;41.50;;;;;;5031365;28;20026;-75
2022/05/02 12:55:23;;;;;;;7.70;3.30;;;24.80;41.60;;;;;;5032384;28;20037;-76
2022/05/02 13:00:52;;;;;;;10.25;3.25;;;24.70;42.20;;;;;;5027922;28;20051;-76
2022/05/02 13:03:30;;;;;;;9.70;3.28;;;24.70;42.60;;;;;;5036926;28;20497;-76
2022/05/02 13:06:06;;;;;;;10.18;2.83;;;24.80;42.70;;;;;;5035933;28;20029;-76
2022/05/02 13:08:36;;;;;;;8.27;3.17;;;24.80;42.80;;;;;;5036845;28;20036;-75
2022/05/02 13:11:11;;;;;;;9.93;3.58;;;24.70;43.20;;;;;;5036319;28;20031;-74
2022/05/02 13:13:47;;;;;;;7.55;4.03;;;24.70;42.40;;;;;;5036452;28;20048;-75
2022/05/02 13:16:39;;;;;;;10.85;3.90;;;24.80;43.00;;;;;;5036527;28;20107;-79
2022/05/02 13:19:06;;;;;;;8.35;3.00;;;24.90;42.80;;;;;;5033706;28;20140;-75
2022/05/02 13:21:32;;;;;;;9.70;2.88;;;24.80;42.50;;;;;;5036342;28;20023;-77
2022/05/02 13:24:10;;;;;;;7.97;3.05;;;24.70;42.70;;;;;;5035180;28;20048;-81
2022/05/02 13:26:54;;;;;;;7.40;3.25;;;24.70;42.80;;;;;;5036106;28;20169;-80
2022/05/02 13:29:23;;;;;;;6.35;3.08;;;24.70;42.60;;;;;;5036208;28;20052;-80
2022/05/02 13:31:57;;;;;;;5.97;2.67;;;24.80;42.00;;;;;;5036325;28;20032;-81
2022/05/02 13:34:51;;;;;;;9.50;2.95;;;24.70;42.80;;;;;;5036130;28;20037;-79
2022/05/02 13:37:33;;;;;;;;;;;24.60;42.20;;;;;;5036561;28;20065;-79
2022/05/02 13:40:07;;;;;;;6.20;3.25;;;24.50;42.40;;;;;;5034867;28;19991;-80
2022/05/02 13:42:59;;;;;;;9.85;4.45;;;24.40;42.40;;;;;;5051568;28;20025;-77
2022/05/02 13:45:41;;;;;;;6.78;2.60;;;24.40;42.00;;;;;;5035584;28;20032;-76
2022/05/02 13:48:26;;;;;;;6.85;2.55;;;24.40;42.50;;;;;;5051094;28;20128;-76
2022/05/02 13:51:11;;;;;;;7.45;2.80;;;24.40;42.70;;;;;;5051121;28;20029;-77
2022/05/02 13:53:55;;;;;;;9.18;2.90;;;24.40;42.40;;;;;;5050731;28;20021;-78